Time;durP1;ratioP1;P1;durP2;ratioP2;P2;SDS_P1;SDS_P2;PMS_P1;PMS_P2;Temp;Humidity;BMP_temperature;BMP_pressure;BME280_temperature;BME280_humidity;BME280_pressure;Samples;Min_cycle;Max_cycle;Signal;HPM_P1;HPM_P2
2023/07/09 00:00:59;;;;;;;6.43;3.92;;;;;;;-145.41;100.00;58600.66;5042218;28;20114;-74
2023/07/09 00:03:24;;;;;;;5.75;3.90;;;;;;;-145.41;100.00;58600.66;5046313;28;20463;-73
2023/07/09 00:05:50;;;;;;;5.05;3.20;;;;;;;-145.41;100.00;58600.66;5036585;28;20033;-75
2023/07/09 00:08:31;;;;;;;6.63;3.65;;;;;;;-145.41;100.00;58600.66;5039198;28;20454;-75
2023/07/09 00:10:57;;;;;;;5.68;3.90;;;;;;;-145.41;100.00;58600.66;5035263;28;20077;-74
2023/07/09 00:13:25;;;;;;;6.13;4.07;;;;;;;-145.41;100.00;58600.66;5034053;28;20039;-75
2023/07/09 00:15:52;;;;;;;5.32;3.85;;;;;;;-145.41;100.00;58600.66;5044149;28;20033;-75
2023/07/09 00:18:17;;;;;;;8.32;4.15;;;;;;;-145.41;100.00;58600.66;5039688;28;20036;-74
2023/07/09 00:20:47;;;;;;;7.22;3.70;;;;;;;-145.41;100.00;58600.66;5037635;28;20045;-75
2023/07/09 00:23:13;;;;;;;8.23;4.13;;;;;;;-145.41;100.00;58600.66;5043612;28;20476;-74
2023/07/09 00:25:43;;;;;;;6.22;4.05;;;;;;;-145.41;100.00;58600.66;5040636;28;20048;-75
2023/07/09 00:28:16;;;;;;;6.00;3.80;;;;;;;-145.41;100.00;58600.66;5036993;28;20120;-75
2023/07/09 00:30:41;;;;;;;9.00;4.15;;;;;;;-145.41;100.00;58600.66;5042455;28;20040;-74
2023/07/09 00:33:14;;;;;;;5.65;4.05;;;;;;;-145.41;100.00;58600.66;5032818;28;20039;-75
2023/07/09 00:35:40;;;;;;;6.65;4.03;;;;;;;-145.41;100.00;58600.66;5038214;28;20127;-74
2023/07/09 00:38:29;;;;;;;7.43;4.68;;;;;;;-145.41;100.00;58600.66;5040350;28;20032;-75
2023/07/09 00:41:06;;;;;;;5.55;4.10;;;;;;;-145.41;100.00;58600.66;5044054;28;20427;-75
2023/07/09 00:43:36;;;;;;;6.22;3.97;;;;;;;-145.41;100.00;58600.66;5042053;28;20143;-74
2023/07/09 00:46:20;;;;;;;6.25;4.20;;;;;;;-145.41;100.00;58600.66;5045375;28;20026;-74
2023/07/09 00:48:51;;;;;;;7.55;4.30;;;;;;;-145.41;100.00;58600.66;5035650;28;20033;-75
2023/07/09 00:51:22;;;;;;;6.55;3.80;;;;;;;-145.41;100.00;58600.66;5043554;28;20056;-73
2023/07/09 00:53:55;;;;;;;5.63;4.07;;;;;;;-145.41;100.00;58600.66;5025383;28;20104;-73
2023/07/09 00:56:29;;;;;;;6.75;3.92;;;;;;;-145.41;100.00;58600.66;5037947;28;20099;-74
2023/07/09 00:58:56;;;;;;;6.68;4.53;;;;;;;-145.41;100.00;58600.66;5041323;28;20084;-74
2023/07/09 01:01:23;;;;;;;5.15;3.50;;;;;;;-145.41;100.00;58600.66;5045599;28;20029;-73
2023/07/09 01:03:52;;;;;;;5.05;3.78;;;;;;;-145.41;100.00;58600.66;5042646;28;20083;-74
2023/07/09 01:06:23;;;;;;;10.55;4.10;;;;;;;-145.41;100.00;58600.66;5045805;28;20111;-74
2023/07/09 01:08:53;;;;;;;8.02;4.40;;;;;;;-145.41;100.00;58600.66;5035141;28;20104;-75
2023/07/09 01:11:21;;;;;;;5.55;3.80;;;;;;;-145.41;100.00;58600.66;5044148;28;20128;-74
2023/07/09 01:13:54;;;;;;;5.38;3.78;;;;;;;-145.41;100.00;58600.66;5043589;28;20053;-74
2023/07/09 01:16:23;;;;;;;6.40;4.07;;;;;;;-145.41;100.00;58600.66;5044631;28;20037;-75
2023/07/09 01:18:52;;;;;;;5.88;3.70;;;;;;;-145.41;100.00;58600.66;5042162;28;20021;-74
2023/07/09 01:21:17;;;;;;;4.88;3.90;;;;;;;-145.41;100.00;58600.66;5045478;28;20037;-74
2023/07/09 01:23:46;;;;;;;5.88;3.92;;;;;;;-145.41;100.00;58600.66;5042651;28;20067;-74
2023/07/09 01:26:20;;;;;;;5.47;4.05;;;;;;;-145.41;100.00;58600.66;5043456;28;20514;-74
2023/07/09 01:28:46;;;;;;;6.45;3.83;;;;;;;-145.41;100.00;58600.66;5040986;28;20447;-74
2023/07/09 01:31:14;;;;;;;6.38;4.57;;;;;;;-145.41;100.00;58600.66;5042519;28;20128;-74
2023/07/09 01:33:44;;;;;;;6.75;4.43;;;;;;;-145.41;100.00;58600.66;5043979;28;20096;-73
2023/07/09 01:36:15;;;;;;;6.60;4.60;;;;;;;-145.41;100.00;58600.66;5048550;28;20037;-73
2023/07/09 01:38:41;;;;;;;5.65;4.32;;;;;;;-145.41;100.00;58600.66;5037529;28;20028;-74
2023/07/09 01:41:06;;;;;;;5.90;4.30;;;;;;;-145.41;100.00;58600.66;5039152;28;20036;-73
2023/07/09 01:43:32;;;;;;;6.50;4.93;;;;;;;-145.41;100.00;58600.66;5044194;28;20034;-73
2023/07/09 01:45:58;;;;;;;8.13;4.57;;;;;;;-145.41;100.00;58600.66;5042851;28;20415;-73
2023/07/09 01:48:26;;;;;;;7.40;4.07;;;;;;;-145.41;100.00;58600.66;5046682;28;20393;-73
2023/07/09 01:50:53;;;;;;;6.28;4.25;;;;;;;-145.41;100.00;58600.66;5043644;28;20029;-74
2023/07/09 01:53:25;;;;;;;6.60;5.00;;;;;;;-145.41;100.00;58600.66;5044525;28;20420;-74
2023/07/09 01:55:51;;;;;;;8.52;4.65;;;;;;;-145.41;100.00;58600.66;5040053;28;20038;-74
2023/07/09 01:58:17;;;;;;;6.15;4.28;;;;;;;-145.41;100.00;58600.66;5041329;28;20069;-73
2023/07/09 02:00:44;;;;;;;5.90;3.83;;;;;;;-145.41;100.00;58600.66;5038342;28;20029;-74
2023/07/09 02:03:10;;;;;;;8.77;4.50;;;;;;;-145.41;100.00;58600.66;5046640;28;20037;-74
2023/07/09 02:05:36;;;;;;;6.63;4.40;;;;;;;-145.41;100.00;58600.66;5039512;28;20398;-73
2023/07/09 02:08:02;;;;;;;6.03;4.20;;;;;;;-145.41;100.00;58600.66;5033643;28;20033;-73
2023/07/09 02:10:27;;;;;;;5.65;4.30;;;;;;;-145.41;100.00;58600.66;5044839;28;20029;-74
2023/07/09 02:12:54;;;;;;;5.78;3.92;;;;;;;-145.41;100.00;58600.66;5036575;28;20044;-74
2023/07/09 02:15:19;;;;;;;6.15;4.57;;;;;;;-145.41;100.00;58600.66;5044264;28;20514;-73
2023/07/09 02:17:44;;;;;;;6.18;4.25;;;;;;;-145.41;100.00;58600.66;5036050;28;20037;-74
2023/07/09 02:20:11;;;;;;;5.30;4.35;;;;;;;-145.41;100.00;58600.66;5041825;28;20047;-74
2023/07/09 02:22:38;;;;;;;5.35;4.25;;;;;;;-145.41;100.00;58600.66;5046011;28;20033;-74
2023/07/09 02:25:05;;;;;;;5.55;3.75;;;;;;;-145.41;100.00;58600.66;5040493;28;20029;-72
2023/07/09 02:27:32;;;;;;;7.18;4.43;;;;;;;-145.41;100.00;58600.66;5037771;28;20077;-73
2023/07/09 02:29:57;;;;;;;5.45;4.05;;;;;;;-145.41;100.00;58600.66;5035799;28;20029;-73
2023/07/09 02:32:26;;;;;;;6.70;3.88;;;;;;;-145.41;100.00;58600.66;5044336;28;20060;-73
2023/07/09 02:34:52;;;;;;;7.00;4.45;;;;;;;-145.41;100.00;58600.66;5040182;28;20030;-73
2023/07/09 02:37:24;;;;;;;6.70;4.75;;;;;;;-145.41;100.00;58600.66;5037623;28;20025;-73
2023/07/09 02:39:49;;;;;;;6.05;4.22;;;;;;;-145.41;100.00;58600.66;5040050;28;20063;-73
2023/07/09 02:42:17;;;;;;;7.65;4.63;;;;;;;-145.41;100.00;58600.66;5045678;28;20681;-74
2023/07/09 02:44:43;;;;;;;5.90;4.50;;;;;;;-145.41;100.00;58600.66;5041460;28;20056;-74
2023/07/09 02:47:10;;;;;;;6.43;4.55;;;;;;;-145.41;100.00;58600.66;5041035;28;20024;-74
2023/07/09 02:49:37;;;;;;;7.75;4.78;;;;;;;-145.41;100.00;58600.66;5035141;28;20033;-74
2023/07/09 02:52:02;;;;;;;6.57;4.93;;;;;;;-145.41;100.00;58600.66;5035314;28;20040;-74
2023/07/09 02:54:28;;;;;;;5.93;4.32;;;;;;;-145.41;100.00;58600.66;5043317;28;20028;-74
2023/07/09 02:56:53;;;;;;;6.65;4.85;;;;;;;-145.41;100.00;58600.66;5041065;28;20775;-74
2023/07/09 02:59:19;;;;;;;7.88;4.97;;;;;;;-145.41;100.00;58600.66;5032875;28;20087;-75
2023/07/09 03:01:45;;;;;;;7.32;4.70;;;;;;;-145.41;100.00;58600.66;5035515;28;20041;-74
2023/07/09 03:04:10;;;;;;;5.38;4.05;;;;;;;-145.41;100.00;58600.66;5036355;28;20519;-74
2023/07/09 03:06:36;;;;;;;8.52;4.68;;;;;;;-145.41;100.00;58600.66;5038780;28;20036;-75
2023/07/09 03:09:04;;;;;;;6.57;5.05;;;;;;;-145.41;100.00;58600.66;5040626;28;20047;-75
2023/07/09 03:11:33;;;;;;;5.78;4.30;;;;;;;-145.41;100.00;58600.66;5039132;28;20065;-75
2023/07/09 03:13:59;;;;;;;6.72;4.55;;;;;;;-145.41;100.00;58600.66;5046984;28;20108;-74
2023/07/09 03:16:31;;;;;;;6.72;4.60;;;;;;;-145.41;100.00;58600.66;5045353;28;20068;-76
2023/07/09 03:18:56;;;;;;;5.63;4.25;;;;;;;-145.41;100.00;58600.66;5034778;28;20124;-74
2023/07/09 03:21:23;;;;;;;8.88;5.10;;;;;;;-145.41;100.00;58600.66;5037106;28;20182;-73
2023/07/09 03:23:49;;;;;;;6.55;4.30;;;;;;;-145.41;100.00;58600.66;5040352;28;20032;-73
2023/07/09 03:26:14;;;;;;;6.03;4.15;;;;;;;-145.41;100.00;58600.66;5035890;28;20033;-74
2023/07/09 03:28:40;;;;;;;6.75;4.72;;;;;;;-145.41;100.00;58600.66;5043866;28;20403;-74
2023/07/09 03:31:06;;;;;;;6.05;4.45;;;;;;;-145.41;100.00;58600.66;5036452;28;20032;-74
2023/07/09 03:33:31;;;;;;;6.05;4.20;;;;;;;-145.41;100.00;58600.66;5037870;28;20112;-73
2023/07/09 03:35:57;;;;;;;6.80;4.20;;;;;;;-145.41;100.00;58600.66;5044942;28;20388;-73
2023/07/09 03:38:22;;;;;;;6.90;4.68;;;;;;;-145.41;100.00;58600.66;5038757;28;20152;-74
2023/07/09 03:40:54;;;;;;;7.32;4.13;;;;;;;-145.41;100.00;58600.66;5036347;28;20127;-73
2023/07/09 03:43:20;;;;;;;5.03;4.20;;;;;;;-145.41;100.00;58600.66;5041942;28;20079;-73
2023/07/09 03:45:47;;;;;;;6.28;4.28;;;;;;;-145.41;100.00;58600.66;5039898;28;20029;-73
2023/07/09 03:48:14;;;;;;;6.75;4.82;;;;;;;-145.41;100.00;58600.66;5035663;28;20040;-73
2023/07/09 03:50:41;;;;;;;5.25;4.18;;;;;;;-145.41;100.00;58600.66;5043071;28;20036;-73
2023/07/09 03:53:06;;;;;;;7.78;5.07;;;;;;;-145.41;100.00;58600.66;5039210;28;20075;-74
2023/07/09 03:55:32;;;;;;;5.88;4.90;;;;;;;-145.41;100.00;58600.66;5037535;28;20568;-73
2023/07/09 03:57:57;;;;;;;5.85;4.70;;;;;;;-145.41;100.00;58600.66;5045834;28;20443;-73
2023/07/09 04:00:24;;;;;;;6.75;5.03;;;;;;;-145.41;100.00;58600.66;5038564;28;20095;-73
2023/07/09 04:02:51;;;;;;;8.40;5.05;;;;;;;-145.41;100.00;58600.66;5036685;28;20072;-74
2023/07/09 04:05:17;;;;;;;6.55;4.60;;;;;;;-145.41;100.00;58600.66;5043332;28;20031;-74
2023/07/09 04:07:43;;;;;;;7.30;4.93;;;;;;;-145.41;100.00;58600.66;5037917;28;20095;-74
2023/07/09 04:10:09;;;;;;;9.85;5.63;;;;;;;-145.41;100.00;58600.66;5040520;28;20041;-74
2023/07/09 04:12:34;;;;;;;6.15;5.28;;;;;;;-145.41;100.00;58600.66;5042540;28;20391;-74
2023/07/09 04:15:00;;;;;;;7.57;5.75;;;;;;;-145.41;100.00;58600.66;5038155;28;20036;-74
2023/07/09 04:17:25;;;;;;;6.70;5.32;;;;;;;-145.41;100.00;58600.66;5045823;28;20033;-74
2023/07/09 04:19:51;;;;;;;6.80;5.28;;;;;;;-145.41;100.00;58600.66;5040956;28;20045;-74
2023/07/09 04:22:17;;;;;;;7.97;5.18;;;;;;;-145.41;100.00;58600.66;5039007;28;20038;-73
2023/07/09 04:24:42;;;;;;;6.60;5.30;;;;;;;-145.41;100.00;58600.66;5037256;28;20087;-74
2023/07/09 04:27:08;;;;;;;7.90;5.25;;;;;;;-145.41;100.00;58600.66;5043319;28;20045;-73
2023/07/09 04:29:35;;;;;;;7.15;4.93;;;;;;;-145.41;100.00;58600.66;5042156;28;20083;-74
2023/07/09 04:32:01;;;;;;;7.30;5.18;;;;;;;-145.41;100.00;58600.66;5037919;28;20029;-74
2023/07/09 04:34:26;;;;;;;7.35;4.97;;;;;;;-145.41;100.00;58600.66;5040655;28;20037;-74
2023/07/09 04:36:51;;;;;;;6.50;5.10;;;;;;;-145.41;100.00;58600.66;5038835;28;20041;-74
2023/07/09 04:39:17;;;;;;;8.40;5.40;;;;;;;-145.41;100.00;58600.66;5037121;28;20033;-74
2023/07/09 04:41:42;;;;;;;7.47;5.18;;;;;;;-145.41;100.00;58600.66;5048732;28;20025;-73
2023/07/09 04:44:07;;;;;;;8.15;5.13;;;;;;;-145.41;100.00;58600.66;5043546;28;20040;-74
2023/07/09 04:46:33;;;;;;;7.32;5.20;;;;;;;-145.41;100.00;58600.66;5042538;28;20037;-74
2023/07/09 04:49:00;;;;;;;6.32;4.78;;;;;;;-145.41;100.00;58600.66;5047649;28;20135;-73
2023/07/09 04:51:25;;;;;;;8.50;5.05;;;;;;;-145.41;100.00;58600.66;5042971;28;20037;-74
2023/07/09 04:53:51;;;;;;;6.63;5.60;;;;;;;-145.41;100.00;58600.66;5041252;28;20025;-73
2023/07/09 04:56:17;;;;;;;7.28;5.70;;;;;;;-145.41;100.00;58600.66;5033687;28;20033;-73
2023/07/09 04:58:43;;;;;;;6.00;5.03;;;;;;;-145.41;100.00;58600.66;5048321;28;20551;-75
2023/07/09 05:01:08;;;;;;;6.97;4.60;;;;;;;-145.41;100.00;58600.66;5040470;28;20037;-75
2023/07/09 05:03:33;;;;;;;6.30;4.93;;;;;;;-145.41;100.00;58600.66;5042513;28;20033;-75
2023/07/09 05:05:59;;;;;;;6.32;4.68;;;;;;;-145.41;100.00;58600.66;5049167;28;20539;-75
2023/07/09 05:08:24;;;;;;;6.53;5.10;;;;;;;-145.41;100.00;58600.66;5039553;28;20218;-75
2023/07/09 05:10:51;;;;;;;6.47;4.82;;;;;;;-145.41;100.00;58600.66;5041574;28;20104;-75
2023/07/09 05:13:17;;;;;;;6.35;4.25;;;;;;;-145.41;100.00;58600.66;5048866;28;20487;-75
2023/07/09 05:15:45;;;;;;;6.85;5.30;;;;;;;-145.41;100.00;58600.66;5038740;28;20033;-75
2023/07/09 05:18:14;;;;;;;9.35;5.80;;;;;;;-145.41;100.00;58600.66;5043636;28;20030;-75
2023/07/09 05:20:40;;;;;;;6.20;5.18;;;;;;;-145.41;100.00;58600.66;5048509;28;20041;-75
2023/07/09 05:23:08;;;;;;;7.65;5.30;;;;;;;-145.41;100.00;58600.66;5037428;28;20543;-75
2023/07/09 05:25:34;;;;;;;7.55;5.35;;;;;;;-145.41;100.00;58600.66;5043275;28;20029;-74
2023/07/09 05:27:59;;;;;;;6.63;5.40;;;;;;;-145.41;100.00;58600.66;5050938;28;20455;-75
2023/07/09 05:30:25;;;;;;;7.03;5.10;;;;;;;-145.41;100.00;58600.66;5036689;28;20095;-75
2023/07/09 05:32:53;;;;;;;8.00;5.15;;;;;;;-145.41;100.00;58600.66;5041338;28;20075;-75
2023/07/09 05:35:18;;;;;;;7.75;5.65;;;;;;;-145.41;100.00;58600.66;5051175;28;20373;-74
2023/07/09 05:37:44;;;;;;;6.25;4.78;;;;;;;-145.41;100.00;58600.66;5036601;28;20136;-75
2023/07/09 05:40:10;;;;;;;6.47;5.03;;;;;;;-145.41;100.00;58600.66;5043692;28;20082;-74
2023/07/09 05:42:35;;;;;;;6.88;5.45;;;;;;;-145.41;100.00;58600.66;5046732;28;20037;-74
2023/07/09 05:45:01;;;;;;;6.82;4.68;;;;;;;-145.41;100.00;58600.66;5038458;28;20488;-75
2023/07/09 05:47:26;;;;;;;7.47;5.07;;;;;;;-145.41;100.00;58600.66;5045083;28;20040;-75
2023/07/09 05:49:52;;;;;;;7.25;5.38;;;;;;;-145.41;100.00;58600.66;5042426;28;20029;-75
2023/07/09 05:52:19;;;;;;;7.70;5.20;;;;;;;-145.41;100.00;58600.66;5037656;28;20038;-74
2023/07/09 05:54:44;;;;;;;6.20;4.97;;;;;;;-145.41;100.00;58600.66;5044698;28;20045;-75
2023/07/09 05:57:10;;;;;;;6.18;4.72;;;;;;;-145.41;100.00;58600.66;5046882;28;20030;-75
2023/07/09 05:59:35;;;;;;;7.03;5.25;;;;;;;-145.41;100.00;58600.66;5037735;28;20100;-74
2023/07/09 06:02:02;;;;;;;6.90;5.40;;;;;;;-145.41;100.00;58600.66;5043793;28;20052;-74
2023/07/09 06:04:28;;;;;;;7.93;5.65;;;;;;;-145.41;100.00;58600.66;5042984;28;20037;-75
2023/07/09 06:06:53;;;;;;;7.43;5.07;;;;;;;-145.41;100.00;58600.66;5038004;28;20084;-75
2023/07/09 06:09:19;;;;;;;6.38;5.05;;;;;;;-145.41;100.00;58600.66;5045009;28;20041;-74
2023/07/09 06:11:44;;;;;;;6.53;4.63;;;;;;;-145.41;100.00;58600.66;5040105;28;20046;-74
2023/07/09 06:14:10;;;;;;;7.40;5.07;;;;;;;-145.41;100.00;58600.66;5037768;28;20034;-74
2023/07/09 06:16:37;;;;;;;7.63;5.22;;;;;;;-145.41;100.00;58600.66;5038450;28;20079;-74
2023/07/09 06:19:02;;;;;;;6.57;5.40;;;;;;;-145.41;100.00;58600.66;5037106;28;20033;-73
2023/07/09 06:21:27;;;;;;;7.00;5.75;;;;;;;-145.41;100.00;58600.66;5040473;28;20440;-74
2023/07/09 06:23:53;;;;;;;8.43;5.65;;;;;;;-145.41;100.00;58600.66;5041148;28;20041;-74
2023/07/09 06:26:19;;;;;;;7.63;4.78;;;;;;;-145.41;100.00;58600.66;5037280;28;20041;-73
2023/07/09 06:28:45;;;;;;;9.02;5.72;;;;;;;-145.41;100.00;58600.66;5038461;28;20071;-74
2023/07/09 06:31:10;;;;;;;7.80;5.25;;;;;;;-145.41;100.00;58600.66;5046109;28;20497;-74
2023/07/09 06:33:35;;;;;;;8.43;5.53;;;;;;;-145.41;100.00;58600.66;5037670;28;20167;-74
2023/07/09 06:36:01;;;;;;;8.73;5.38;;;;;;;-145.41;100.00;58600.66;5041776;28;20048;-74
2023/07/09 06:38:28;;;;;;;6.32;5.13;;;;;;;-145.41;100.00;58600.66;5043394;28;20041;-75
2023/07/09 06:40:54;;;;;;;6.18;5.25;;;;;;;-145.41;100.00;58600.66;5038067;28;20047;-75
2023/07/09 06:43:20;;;;;;;7.15;5.32;;;;;;;-145.41;100.00;58600.66;5041764;28;20067;-75
2023/07/09 06:45:55;;;;;;;6.03;5.00;;;;;;;-145.41;100.00;58600.66;5047654;28;20035;-73
2023/07/09 06:48:20;;;;;;;9.27;5.05;;;;;;;-145.41;100.00;58600.66;5034822;28;20029;-75
2023/07/09 06:50:46;;;;;;;7.32;5.10;;;;;;;-145.41;100.00;58600.66;5039728;28;20033;-74
2023/07/09 06:53:12;;;;;;;6.85;5.15;;;;;;;-145.41;100.00;58600.66;5042480;28;20033;-75
2023/07/09 06:55:37;;;;;;;6.50;4.90;;;;;;;-145.41;100.00;58600.66;5035697;28;20041;-74
2023/07/09 06:58:03;;;;;;;7.65;5.13;;;;;;;-145.41;100.00;58600.66;5040568;28;20056;-74
2023/07/09 07:00:28;;;;;;;7.00;4.50;;;;;;;-145.41;100.00;58600.66;5044563;28;20078;-75
2023/07/09 07:02:53;;;;;;;5.78;5.05;;;;;;;-145.41;100.00;58600.66;5036881;28;20399;-74
2023/07/09 07:05:19;;;;;;;5.93;4.80;;;;;;;-145.41;100.00;58600.66;5043740;28;20033;-74
2023/07/09 07:07:44;;;;;;;7.85;4.80;;;;;;;-145.41;100.00;58600.66;5042396;28;20062;-76
2023/07/09 07:10:10;;;;;;;7.40;5.03;;;;;;;-145.41;100.00;58600.66;5035498;28;20041;-76
2023/07/09 07:12:44;;;;;;;6.95;4.40;;;;;;;-145.41;100.00;58600.66;5041567;28;20033;-75
2023/07/09 07:15:13;;;;;;;7.25;5.57;;;;;;;-145.41;100.00;58600.66;5048632;28;20033;-75
2023/07/09 07:17:38;;;;;;;8.80;4.63;;;;;;;-145.41;100.00;58600.66;5031067;28;20021;-75
2023/07/09 07:20:05;;;;;;;6.75;4.80;;;;;;;-145.41;100.00;58600.66;5039056;28;20514;-75
2023/07/09 07:22:30;;;;;;;6.10;4.47;;;;;;;-145.41;100.00;58600.66;5046004;28;20484;-75
2023/07/09 07:24:56;;;;;;;7.68;4.75;;;;;;;-145.41;100.00;58600.66;5033223;28;20082;-75
2023/07/09 07:27:21;;;;;;;5.60;4.35;;;;;;;-145.41;100.00;58600.66;5034517;28;20064;-74
2023/07/09 07:29:46;;;;;;;6.80;5.00;;;;;;;-145.41;100.00;58600.66;5035285;28;20488;-73
2023/07/09 07:32:12;;;;;;;6.68;5.07;;;;;;;-145.41;100.00;58600.66;5034553;28;20075;-73
2023/07/09 07:34:37;;;;;;;5.70;4.65;;;;;;;-145.41;100.00;58600.66;5033026;28;20026;-74
2023/07/09 07:37:02;;;;;;;5.90;4.55;;;;;;;-145.41;100.00;58600.66;5037585;28;20040;-73
2023/07/09 07:39:28;;;;;;;6.53;5.43;;;;;;;-145.41;100.00;58600.66;5038632;28;20037;-73
2023/07/09 07:41:55;;;;;;;6.15;5.15;;;;;;;-145.41;100.00;58600.66;5036009;28;20033;-75
2023/07/09 07:44:20;;;;;;;6.40;4.50;;;;;;;-145.41;100.00;58600.66;5039758;28;20037;-74
2023/07/09 07:46:45;;;;;;;6.47;4.32;;;;;;;-145.41;100.00;58600.66;5037104;28;20045;-75
2023/07/09 07:49:11;;;;;;;6.13;4.70;;;;;;;-145.41;100.00;58600.66;5040538;28;20044;-75
2023/07/09 07:51:37;;;;;;;5.20;4.28;;;;;;;-145.41;100.00;58600.66;5045888;28;20033;-75
2023/07/09 07:54:02;;;;;;;8.77;4.88;;;;;;;-145.41;100.00;58600.66;5037658;28;20061;-75
2023/07/09 07:56:27;;;;;;;5.93;4.65;;;;;;;-145.41;100.00;58600.66;5041965;28;20060;-74
2023/07/09 07:58:53;;;;;;;5.13;4.25;;;;;;;-145.41;100.00;58600.66;5033477;28;20030;-73
2023/07/09 08:01:18;;;;;;;6.22;4.95;;;;;;;-145.41;100.00;58600.66;5036852;28;20085;-73
2023/07/09 08:03:43;;;;;;;5.97;4.20;;;;;;;-145.41;100.00;58600.66;5042202;28;20096;-74
2023/07/09 08:06:09;;;;;;;6.32;4.75;;;;;;;-145.41;100.00;58600.66;5040810;28;20037;-73
2023/07/09 08:08:34;;;;;;;7.03;5.00;;;;;;;-145.41;100.00;58600.66;5031180;28;20034;-72
2023/07/09 08:11:04;;;;;;;5.45;4.13;;;;;;;-145.41;100.00;58600.66;5042317;28;20087;-73
2023/07/09 08:13:32;;;;;;;5.93;4.35;;;;;;;-145.41;100.00;58600.66;5034968;28;20025;-73
2023/07/09 08:15:57;;;;;;;6.95;4.65;;;;;;;-145.41;100.00;58600.66;5040443;28;20029;-73
2023/07/09 08:18:22;;;;;;;5.78;4.20;;;;;;;-145.41;100.00;58600.66;5038322;28;20499;-73
2023/07/09 08:20:48;;;;;;;5.65;4.63;;;;;;;-145.41;100.00;58600.66;5040551;28;20399;-73
2023/07/09 08:23:13;;;;;;;6.25;3.78;;;;;;;-145.41;100.00;58600.66;5043572;28;20398;-74
2023/07/09 08:25:38;;;;;;;6.22;4.35;;;;;;;-145.41;100.00;58600.66;5050496;28;20773;-74
2023/07/09 08:28:04;;;;;;;5.18;4.68;;;;;;;-145.41;100.00;58600.66;5040905;28;20123;-74
2023/07/09 08:30:29;;;;;;;5.05;3.63;;;;;;;-145.41;100.00;58600.66;5042453;28;20032;-73
2023/07/09 08:32:57;;;;;;;4.72;3.70;;;;;;;-145.41;100.00;58600.66;5051253;28;20025;-74
2023/07/09 08:35:22;;;;;;;5.30;3.53;;;;;;;-145.41;100.00;58600.66;5034892;28;20029;-74
2023/07/09 08:37:47;;;;;;;4.60;3.95;;;;;;;-145.41;100.00;58600.66;5039486;28;20107;-73
2023/07/09 08:40:16;;;;;;;6.30;3.78;;;;;;;-145.41;100.00;58600.66;5047173;28;20032;-74
2023/07/09 08:42:48;;;;;;;4.85;3.70;;;;;;;-145.41;100.00;58600.66;5039981;28;20494;-74
2023/07/09 08:45:49;;;;;;;6.38;3.85;;;;;;;-145.41;100.00;58600.66;5043118;28;20037;-74
2023/07/09 08:48:26;;;;;;;4.82;3.80;;;;;;;-145.41;100.00;58600.66;5045999;28;20045;-74
2023/07/09 08:50:56;;;;;;;6.57;3.67;;;;;;;-145.41;100.00;58600.66;5039874;28;20044;-74
2023/07/09 08:53:36;;;;;;;5.82;3.83;;;;;;;-145.41;100.00;58600.66;5047632;28;20063;-74
2023/07/09 08:56:02;;;;;;;4.32;3.20;;;;;;;-145.41;100.00;58600.66;5039943;28;20601;-74
2023/07/09 08:58:32;;;;;;;6.57;3.90;;;;;;;-145.41;100.00;58600.66;5042644;28;20049;-73
2023/07/09 09:01:13;;;;;;;7.35;4.32;;;;;;;-145.41;100.00;58600.66;5041710;28;20488;-74
2023/07/09 09:03:44;;;;;;;4.78;3.53;;;;;;;-145.41;100.00;58600.66;5038676;28;20041;-74
2023/07/09 09:06:16;;;;;;;5.70;3.47;;;;;;;-145.41;100.00;58600.66;5044579;28;20443;-73
2023/07/09 09:08:41;;;;;;;;;;;;;;;-145.41;100.00;58600.66;5044619;28;20037;-74
2023/07/09 09:11:16;;;;;;;5.50;3.90;;;;;;;-145.41;100.00;58600.66;5037306;28;20016;-74
2023/07/09 09:13:43;;;;;;;5.05;3.55;;;;;;;-145.41;100.00;58600.66;5042730;28;20284;-74
2023/07/09 09:16:21;;;;;;;5.32;4.20;;;;;;;-145.41;100.00;58600.66;5046633;28;20045;-74
2023/07/09 09:18:47;;;;;;;4.72;3.20;;;;;;;-145.41;100.00;58600.66;5039200;28;20037;-73
2023/07/09 09:21:23;;;;;;;4.95;3.20;;;;;;;-145.41;100.00;58600.66;5040888;28;20041;-74
2023/07/09 09:23:52;;;;;;;5.13;3.05;;;;;;;-145.41;100.00;58600.66;5043445;28;20034;-73
2023/07/09 09:26:30;;;;;;;4.15;3.00;;;;;;;-145.41;100.00;58600.66;5041240;28;20059;-73
2023/07/09 09:28:56;;;;;;;4.28;3.13;;;;;;;-145.41;100.00;58600.66;5042739;28;20511;-74
2023/07/09 09:31:24;;;;;;;4.78;3.25;;;;;;;-145.41;100.00;58600.66;5032226;28;20045;-74
2023/07/09 09:33:50;;;;;;;6.10;3.30;;;;;;;-145.41;100.00;58600.66;5039589;28;20059;-73
2023/07/09 09:36:20;;;;;;;4.30;2.80;;;;;;;-145.41;100.00;58600.66;5045458;28;20033;-74
2023/07/09 09:38:45;;;;;;;4.50;3.50;;;;;;;-145.41;100.00;58600.66;5035558;28;20048;-73
2023/07/09 09:41:19;;;;;;;3.60;2.60;;;;;;;-145.41;100.00;58600.66;5035846;28;20492;-75
2023/07/09 09:43:46;;;;;;;5.10;2.80;;;;;;;-145.41;100.00;58600.66;5034130;28;20040;-74
2023/07/09 09:46:18;;;;;;;5.55;3.38;;;;;;;-145.41;100.00;58600.66;5036995;28;20036;-74
2023/07/09 09:48:46;;;;;;;4.47;3.20;;;;;;;-145.41;100.00;58600.66;5042723;28;20515;-75
2023/07/09 09:51:12;;;;;;;4.10;2.60;;;;;;;-145.41;100.00;58600.66;5043188;28;20041;-75
2023/07/09 09:53:40;;;;;;;5.43;3.05;;;;;;;-145.41;100.00;58600.66;5037814;28;20033;-74
2023/07/09 09:56:13;;;;;;;5.80;2.97;;;;;;;-145.41;100.00;58600.66;5045357;28;20558;-74
2023/07/09 09:58:40;;;;;;;3.95;3.03;;;;;;;-145.41;100.00;58600.66;5036373;28;20045;-75
2023/07/09 10:01:15;;;;;;;5.13;3.63;;;;;;;-145.41;100.00;58600.66;5036984;28;20041;-75
2023/07/09 10:03:40;;;;;;;4.47;3.17;;;;;;;-145.41;100.00;58600.66;5049186;28;20381;-74
2023/07/09 10:06:14;;;;;;;4.90;3.00;;;;;;;-145.41;100.00;58600.66;5036122;28;20040;-75
2023/07/09 10:08:49;;;;;;;6.05;3.20;;;;;;;-145.41;100.00;58600.66;5045150;28;20483;-75
2023/07/09 10:11:43;;;;;;;5.10;3.08;;;;;;;-145.41;100.00;58600.66;5042504;28;20057;-74
2023/07/09 10:14:33;;;;;;;5.47;3.15;;;;;;;-145.41;100.00;58600.66;5039502;28;20025;-74
2023/07/09 10:17:10;;;;;;;4.30;2.88;;;;;;;-145.41;100.00;58600.66;5034098;28;20042;-74
2023/07/09 10:19:49;;;;;;;5.68;3.00;;;;;;;-145.41;100.00;58600.66;5040929;28;20044;-75
2023/07/09 10:22:42;;;;;;;4.88;3.00;;;;;;;-145.41;100.00;58600.66;5042977;28;20106;-75
2023/07/09 10:25:20;;;;;;;4.78;2.97;;;;;;;-145.41;100.00;58600.66;5035784;28;20129;-75
2023/07/09 10:28:04;;;;;;;5.72;3.38;;;;;;;-145.41;100.00;58600.66;5047112;28;20028;-75
2023/07/09 10:30:48;;;;;;;5.13;3.10;;;;;;;-145.41;100.00;58600.66;5037117;28;20049;-75
2023/07/09 10:33:25;;;;;;;3.70;2.85;;;;;;;-145.41;100.00;58600.66;5041185;28;20033;-75
2023/07/09 10:36:00;;;;;;;5.72;3.08;;;;;;;-145.41;100.00;58600.66;5046049;28;20040;-75
2023/07/09 10:38:51;;;;;;;5.75;3.20;;;;;;;-145.41;100.00;58600.66;5039346;28;20450;-75
2023/07/09 10:41:18;;;;;;;7.53;3.07;;;;;;;-145.41;100.00;58600.66;5046572;28;20115;-74
2023/07/09 10:43:49;;;;;;;4.85;2.90;;;;;;;-145.41;100.00;58600.66;5036353;28;20295;-74
2023/07/09 10:46:18;;;;;;;6.60;3.53;;;;;;;-145.41;100.00;58600.66;5041022;28;20071;-75
2023/07/09 10:48:47;;;;;;;4.90;2.70;;;;;;;-145.41;100.00;58600.66;5040054;28;20033;-75
2023/07/09 10:51:30;;;;;;;4.20;2.90;;;;;;;-145.41;100.00;58600.66;5035799;28;20112;-75
2023/07/09 10:54:01;;;;;;;3.90;3.00;;;;;;;-145.41;100.00;58600.66;5035532;28;20033;-75
2023/07/09 10:56:31;;;;;;;4.00;2.65;;;;;;;-145.41;100.00;58600.66;5046456;28;20430;-75
2023/07/09 10:59:27;;;;;;;4.43;3.10;;;;;;;-145.41;100.00;58600.66;5036970;28;20039;-74
2023/07/09 11:01:57;;;;;;;4.95;3.05;;;;;;;-145.41;100.00;58600.66;5045022;28;20060;-76
2023/07/09 11:04:32;;;;;;;3.95;2.78;;;;;;;-145.41;100.00;58600.66;5040283;28;20385;-75
2023/07/09 11:07:01;;;;;;;4.07;2.80;;;;;;;-145.41;100.00;58600.66;5034344;28;20079;-74
2023/07/09 11:09:41;;;;;;;4.28;3.08;;;;;;;-145.41;100.00;58600.66;5045581;28;20029;-74
2023/07/09 11:12:13;;;;;;;3.90;2.65;;;;;;;-145.41;100.00;58600.66;5037872;28;20116;-74
2023/07/09 11:15:09;;;;;;;4.13;3.00;;;;;;;-145.41;100.00;58600.66;5048848;28;20037;-74